createdAt,value
2018-05-09T00:00:34.822Z,15.20
2018-05-09T00:03:02.385Z,15.20
2018-05-09T00:05:30.890Z,15.20
2018-05-09T00:07:58.292Z,15.20
2018-05-09T00:10:26.221Z,15.20
2018-05-09T00:12:53.672Z,15.20
2018-05-09T00:15:25.101Z,15.20
2018-05-09T00:17:52.381Z,15.20
2018-05-09T00:20:19.992Z,15.20
2018-05-09T00:22:47.530Z,15.20
2018-05-09T00:25:15.011Z,15.10
2018-05-09T00:27:42.901Z,15.00
2018-05-09T00:30:10.301Z,15.00
2018-05-09T00:32:37.731Z,15.00
2018-05-09T00:35:05.311Z,14.80
2018-05-09T00:37:34.961Z,14.80
2018-05-09T00:40:05.411Z,14.90
2018-05-09T00:42:32.941Z,14.80
2018-05-09T00:45:00.411Z,14.80
2018-05-09T00:47:31.512Z,14.80
2018-05-09T00:49:59.611Z,14.70
2018-05-09T00:52:30.991Z,14.70
2018-05-09T00:54:58.521Z,14.60
2018-05-09T00:57:25.801Z,14.50
2018-05-09T00:59:53.361Z,14.50
2018-05-09T01:02:20.882Z,14.50
2018-05-09T01:04:49.171Z,14.40
2018-05-09T01:07:17.411Z,14.50
2018-05-09T01:09:44.951Z,14.40
2018-05-09T01:12:16.195Z,14.40
2018-05-09T01:14:43.711Z,14.40
2018-05-09T01:17:11.276Z,14.40
2018-05-09T01:19:38.901Z,14.40
2018-05-09T01:22:06.383Z,14.30
2018-05-09T01:24:34.851Z,14.20
2018-05-09T01:27:02.392Z,14.20
2018-05-09T01:29:29.782Z,14.30
2018-05-09T01:31:57.172Z,14.20
2018-05-09T01:34:24.611Z,14.20
2018-05-09T01:36:52.081Z,14.20
2018-05-09T01:39:19.531Z,14.20
2018-05-09T01:41:48.241Z,14.20
2018-05-09T01:44:17.151Z,14.20
2018-05-09T01:46:44.532Z,14.20
2018-05-09T01:49:12.672Z,14.10
2018-05-09T01:51:40.192Z,14.10
2018-05-09T01:54:09.242Z,14.00
2018-05-09T01:56:36.801Z,14.00
2018-05-09T01:59:04.631Z,13.90
2018-05-09T02:01:32.016Z,13.90
2018-05-09T02:03:59.381Z,13.90
2018-05-09T02:06:26.851Z,13.90
2018-05-09T02:08:56.610Z,13.90
2018-05-09T02:11:24.012Z,13.80
2018-05-09T02:13:52.183Z,13.80
2018-05-09T02:16:19.788Z,13.80
2018-05-09T02:18:47.341Z,13.80
2018-05-09T02:21:14.831Z,13.90
2018-05-09T02:23:42.513Z,13.80
2018-05-09T02:26:10.801Z,13.80
2018-05-09T02:28:39.227Z,13.80
2018-05-09T02:31:06.693Z,13.80
2018-05-09T02:33:34.112Z,13.80
2018-05-09T02:36:01.644Z,13.70
2018-05-09T02:38:30.792Z,13.80
2018-05-09T02:40:58.367Z,13.80
2018-05-09T02:43:26.031Z,13.80
2018-05-09T02:45:53.572Z,13.90
2018-05-09T02:48:21.373Z,13.90
2018-05-09T02:50:48.793Z,13.90
2018-05-09T02:53:16.519Z,13.80
2018-05-09T02:55:44.033Z,13.70
2018-05-09T02:58:11.652Z,13.70
2018-05-09T03:00:39.995Z,13.60
2018-05-09T03:03:07.565Z,13.50
2018-05-09T03:05:35.062Z,13.50
2018-05-09T03:08:03.022Z,13.60
2018-05-09T03:10:30.632Z,13.60
2018-05-09T03:12:58.896Z,13.50
2018-05-09T03:15:26.511Z,13.60
2018-05-09T03:17:54.352Z,13.50
2018-05-09T03:20:22.118Z,13.50
2018-05-09T03:22:49.693Z,13.60
2018-05-09T03:25:17.210Z,13.60
2018-05-09T03:27:45.041Z,13.60
2018-05-09T03:30:14.723Z,13.60
2018-05-09T03:32:43.561Z,13.60
2018-05-09T03:35:11.004Z,13.70
2018-05-09T03:37:39.281Z,13.70
2018-05-09T03:40:07.572Z,13.60
2018-05-09T03:42:36.251Z,13.50
2018-05-09T03:45:04.502Z,13.40
2018-05-09T03:47:36.352Z,13.30
2018-05-09T03:50:03.822Z,13.30
2018-05-09T03:52:31.221Z,13.30
2018-05-09T03:54:58.722Z,13.40
2018-05-09T03:57:27.862Z,13.60
2018-05-09T03:59:55.282Z,13.90
2018-05-09T04:02:44.382Z,14.20
2018-05-09T04:05:29.704Z,14.40
2018-05-09T04:08:15.043Z,14.80
2018-05-09T04:10:43.604Z,15.10
2018-05-09T04:13:11.870Z,15.50
2018-05-09T04:15:41.296Z,15.80
2018-05-09T04:18:08.852Z,16.10
2018-05-09T04:20:36.345Z,16.40
2018-05-09T04:23:03.991Z,16.60
2018-05-09T04:25:31.732Z,17.00
2018-05-09T04:28:00.341Z,17.20
2018-05-09T04:30:27.782Z,17.50
2018-05-09T04:32:55.312Z,17.60
2018-05-09T04:35:28.214Z,17.60
2018-05-09T04:37:56.451Z,18.10
2018-05-09T04:40:25.457Z,18.40
2018-05-09T04:42:52.785Z,18.60
2018-05-09T04:45:20.152Z,18.70
2018-05-09T04:47:47.552Z,18.80
2018-05-09T04:50:16.593Z,19.20
2018-05-09T04:52:45.390Z,19.40
2018-05-09T04:55:12.911Z,19.70
2018-05-09T04:57:40.481Z,19.70
2018-05-09T05:00:08.421Z,19.80
2018-05-09T05:02:36.060Z,19.80
2018-05-09T05:05:05.330Z,19.90
2018-05-09T05:07:33.280Z,19.80
2018-05-09T05:10:00.882Z,19.80
2018-05-09T05:12:28.351Z,19.90
2018-05-09T05:14:59.000Z,20.10
2018-05-09T05:17:26.411Z,20.00
2018-05-09T05:19:54.091Z,20.20
2018-05-09T05:22:21.793Z,20.30
2018-05-09T05:24:52.533Z,20.30
2018-05-09T05:27:20.046Z,20.60
2018-05-09T05:29:48.430Z,20.60
2018-05-09T05:32:18.721Z,20.60
2018-05-09T05:34:46.522Z,20.50
2018-05-09T05:37:14.011Z,20.20
2018-05-09T05:39:41.692Z,20.10
2018-05-09T05:42:08.982Z,20.00
2018-05-09T05:44:37.971Z,19.20
2018-05-09T05:47:05.652Z,19.20
2018-05-09T05:49:33.022Z,18.90
2018-05-09T05:52:00.751Z,18.50
2018-05-09T05:54:30.921Z,18.20
2018-05-09T05:56:58.805Z,17.90
2018-05-09T05:59:26.904Z,17.60
2018-05-09T06:01:55.003Z,17.50
2018-05-09T06:04:23.381Z,17.30
2018-05-09T06:06:50.933Z,17.30
2018-05-09T06:09:18.412Z,17.40
2018-05-09T06:11:46.622Z,17.40
2018-05-09T06:14:14.207Z,17.40
2018-05-09T06:16:44.781Z,17.50
2018-05-09T06:19:13.812Z,17.50
2018-05-09T06:21:43.823Z,17.50
2018-05-09T06:24:11.396Z,17.50
2018-05-09T06:26:39.532Z,17.60
2018-05-09T06:29:07.191Z,17.70
2018-05-09T06:31:34.771Z,17.90
2018-05-09T06:34:02.271Z,17.80
2018-05-09T06:36:29.924Z,17.90
2018-05-09T06:38:58.201Z,18.00
2018-05-09T06:41:25.852Z,18.10
2018-05-09T06:43:53.562Z,18.30
2018-05-09T06:46:26.551Z,18.40
2018-05-09T06:48:54.492Z,18.40
2018-05-09T06:51:21.891Z,18.40
2018-05-09T06:53:50.123Z,18.40
2018-05-09T06:56:17.871Z,18.50
2018-05-09T06:58:45.147Z,18.60
2018-05-09T07:01:12.661Z,18.70
2018-05-09T07:03:40.142Z,18.70
2018-05-09T07:06:07.658Z,18.90
2018-05-09T07:08:35.471Z,19.10
2018-05-09T07:11:03.881Z,19.10
2018-05-09T07:13:31.661Z,19.50
2018-05-09T07:15:59.890Z,19.40
2018-05-09T07:18:27.388Z,19.60
2018-05-09T07:20:55.781Z,19.70
2018-05-09T07:23:23.461Z,19.70
2018-05-09T07:25:51.133Z,19.80
2018-05-09T07:28:18.552Z,19.90
2018-05-09T07:30:47.671Z,20.00
2018-05-09T07:33:16.554Z,20.20
2018-05-09T07:35:44.026Z,20.20
2018-05-09T07:38:11.573Z,20.50
2018-05-09T07:40:41.911Z,20.50
2018-05-09T07:43:09.341Z,20.60
2018-05-09T07:45:37.840Z,20.80
2018-05-09T07:48:05.450Z,20.90
2018-05-09T07:50:35.112Z,20.80
2018-05-09T07:53:02.631Z,20.90
2018-05-09T07:55:30.889Z,21.00
2018-05-09T07:57:58.483Z,21.10
2018-05-09T08:00:26.032Z,21.20
2018-05-09T08:02:54.291Z,21.30
2018-05-09T08:05:21.681Z,21.40
2018-05-09T08:07:50.551Z,21.40
2018-05-09T08:10:18.761Z,21.60
2018-05-09T08:12:46.277Z,21.90
2018-05-09T08:15:13.722Z,22.10
2018-05-09T08:17:41.102Z,22.20
2018-05-09T08:20:10.902Z,22.10
2018-05-09T08:22:38.511Z,22.10
2018-05-09T08:25:06.172Z,22.10
2018-05-09T08:27:35.542Z,22.40
2018-05-09T08:30:03.262Z,22.30
2018-05-09T08:32:30.692Z,22.30
2018-05-09T08:34:59.653Z,22.00
2018-05-09T08:37:28.561Z,22.00
2018-05-09T08:39:58.650Z,22.20
2018-05-09T08:42:32.741Z,22.40
2018-05-09T08:45:01.583Z,22.40
2018-05-09T08:47:31.432Z,22.50
2018-05-09T08:50:01.593Z,22.70
2018-05-09T08:52:30.552Z,22.90
2018-05-09T08:54:58.194Z,23.10
2018-05-09T08:57:26.272Z,23.40
2018-05-09T08:59:56.332Z,23.70
2018-05-09T09:02:23.932Z,23.70
2018-05-09T09:04:52.324Z,23.60
2018-05-09T09:07:22.512Z,23.50
2018-05-09T09:09:49.832Z,23.40
2018-05-09T09:12:18.193Z,23.50
2018-05-09T09:14:45.852Z,23.70
2018-05-09T09:17:13.582Z,23.70
2018-05-09T09:19:41.243Z,23.80
2018-05-09T09:22:08.712Z,23.90
2018-05-09T09:24:36.406Z,23.90
2018-05-09T09:27:03.902Z,24.10
2018-05-09T09:29:31.135Z,24.10
2018-05-09T09:31:59.212Z,24.20
2018-05-09T09:34:27.393Z,24.20
2018-05-09T09:36:57.143Z,24.30
2018-05-09T09:39:27.142Z,24.40
2018-05-09T09:42:00.662Z,24.60
2018-05-09T09:44:28.182Z,24.60
2018-05-09T09:46:55.720Z,24.70
2018-05-09T09:49:24.162Z,24.80
2018-05-09T09:51:51.436Z,24.80
2018-05-09T09:54:21.852Z,24.80
2018-05-09T09:56:50.682Z,24.90
2018-05-09T09:59:18.182Z,25.00
2018-05-09T10:01:45.552Z,24.90
2018-05-09T10:04:13.443Z,25.00
2018-05-09T10:06:40.943Z,24.90
2018-05-09T10:09:09.056Z,24.80
2018-05-09T10:11:37.363Z,24.70
2018-05-09T10:14:05.024Z,24.80
2018-05-09T10:16:32.682Z,24.90
2018-05-09T10:19:01.952Z,24.90
2018-05-09T10:21:30.167Z,25.00
2018-05-09T10:23:57.896Z,25.10
2018-05-09T10:26:26.053Z,25.20
2018-05-09T10:28:53.392Z,25.30
2018-05-09T10:31:21.156Z,25.30
2018-05-09T10:33:48.722Z,25.20
2018-05-09T10:36:16.243Z,24.90
2018-05-09T10:38:43.782Z,25.00
2018-05-09T10:41:11.522Z,25.00
2018-05-09T10:43:39.034Z,25.00
2018-05-09T10:46:07.232Z,25.10
2018-05-09T10:48:34.965Z,25.30
2018-05-09T10:51:02.582Z,25.50
2018-05-09T10:53:30.844Z,25.90
2018-05-09T10:55:58.442Z,26.10
2018-05-09T10:58:25.912Z,26.00
2018-05-09T11:00:54.542Z,26.30
2018-05-09T11:03:22.511Z,26.40
2018-05-09T11:05:50.092Z,26.60
2018-05-09T11:08:17.631Z,26.70
2018-05-09T11:10:45.093Z,26.70
2018-05-09T11:13:12.467Z,26.80
2018-05-09T11:15:39.854Z,26.70
2018-05-09T11:18:07.771Z,26.40
2018-05-09T11:20:35.754Z,26.40
2018-05-09T11:23:04.308Z,26.40
2018-05-09T11:25:31.836Z,26.40
2018-05-09T11:27:59.611Z,26.40
2018-05-09T11:30:27.241Z,26.60
2018-05-09T11:32:55.038Z,26.40
2018-05-09T11:35:22.840Z,26.40
2018-05-09T11:37:50.371Z,26.50
2018-05-09T11:40:17.993Z,26.40
2018-05-09T11:42:45.512Z,26.30
2018-05-09T11:45:13.102Z,26.40
2018-05-09T11:47:40.713Z,26.40
2018-05-09T11:50:08.332Z,26.60
2018-05-09T11:52:35.864Z,26.60
2018-05-09T11:55:03.342Z,26.50
2018-05-09T11:57:30.964Z,26.70
2018-05-09T11:59:58.656Z,26.90
2018-05-09T12:02:28.442Z,26.70
2018-05-09T12:04:55.881Z,26.60
2018-05-09T12:07:23.632Z,26.70
2018-05-09T12:09:51.322Z,27.00
2018-05-09T12:12:19.856Z,27.10
2018-05-09T12:14:47.493Z,27.30
2018-05-09T12:17:15.032Z,27.20
2018-05-09T12:19:43.552Z,27.20
2018-05-09T12:22:11.862Z,27.10
2018-05-09T12:24:39.342Z,27.10
2018-05-09T12:27:07.092Z,27.20
2018-05-09T12:29:40.582Z,27.30
2018-05-09T12:32:10.943Z,27.50
2018-05-09T12:34:38.483Z,27.60
2018-05-09T12:37:07.252Z,27.50
2018-05-09T12:39:36.028Z,27.50
2018-05-09T12:42:05.185Z,27.40
2018-05-09T12:44:40.022Z,27.50
2018-05-09T12:47:08.492Z,27.50
2018-05-09T12:49:38.241Z,27.40
2018-05-09T12:52:06.153Z,27.30
2018-05-09T12:54:34.699Z,27.20
2018-05-09T12:57:03.122Z,27.20
2018-05-09T12:59:31.955Z,27.20
2018-05-09T13:02:04.042Z,27.00
2018-05-09T13:04:31.873Z,26.60
2018-05-09T13:07:02.383Z,26.50
2018-05-09T13:09:30.441Z,26.50
2018-05-09T13:11:59.740Z,26.40
2018-05-09T13:14:30.393Z,26.30
2018-05-09T13:16:59.151Z,26.50
2018-05-09T13:19:29.211Z,26.40
2018-05-09T13:21:57.281Z,26.40
2018-05-09T13:24:29.472Z,26.40
2018-05-09T13:26:59.111Z,26.30
2018-05-09T13:29:27.362Z,26.40
2018-05-09T13:31:54.852Z,26.50
2018-05-09T13:34:25.585Z,26.60
2018-05-09T13:36:56.021Z,26.60
2018-05-09T13:39:26.302Z,26.80
2018-05-09T13:41:53.701Z,26.70
2018-05-09T13:44:21.831Z,26.80
2018-05-09T13:47:03.022Z,26.70
2018-05-09T13:49:35.781Z,26.80
2018-05-09T13:52:05.631Z,26.80
2018-05-09T13:54:36.821Z,26.90
2018-05-09T13:57:08.582Z,26.90
2018-05-09T13:59:37.901Z,27.00
2018-05-09T14:02:09.462Z,27.20
2018-05-09T14:04:37.043Z,27.20
2018-05-09T14:07:09.322Z,27.10
2018-05-09T14:09:40.064Z,27.00
2018-05-09T14:12:10.311Z,27.20
2018-05-09T14:14:45.894Z,27.30
2018-05-09T14:17:13.590Z,27.10
2018-05-09T14:19:46.412Z,27.10
2018-05-09T14:22:25.192Z,27.30
2018-05-09T14:24:52.812Z,27.20
2018-05-09T14:27:27.602Z,27.20
2018-05-09T14:32:57.621Z,27.10
2018-05-09T14:35:25.771Z,27.10
2018-05-09T14:37:55.242Z,26.90
2018-05-09T14:40:29.083Z,26.80
2018-05-09T14:42:56.842Z,26.60
2018-05-09T14:45:24.842Z,26.50
2018-05-09T14:47:56.101Z,26.40
2018-05-09T14:50:27.061Z,26.40
2018-05-09T14:52:56.092Z,26.20
2018-05-09T14:55:24.261Z,26.20
2018-05-09T14:57:54.210Z,26.00
2018-05-09T15:00:22.928Z,25.90
2018-05-09T15:02:51.143Z,25.80
2018-05-09T15:05:28.397Z,25.70
2018-05-09T15:07:59.572Z,25.60
2018-05-09T15:10:28.452Z,25.50
2018-05-09T15:12:57.326Z,25.50
2018-05-09T15:15:25.082Z,25.40
2018-05-09T15:17:55.918Z,25.30
2018-05-09T15:20:24.221Z,25.10
2018-05-09T15:22:53.062Z,24.90
2018-05-09T15:25:21.579Z,24.90
2018-05-09T15:27:49.771Z,24.80
2018-05-09T15:30:17.961Z,24.60
2018-05-09T15:32:47.689Z,24.50
2018-05-09T15:35:35.372Z,24.40
2018-05-09T15:38:06.552Z,24.30
2018-05-09T15:40:35.664Z,24.10
2018-05-09T15:43:04.082Z,23.90
2018-05-09T15:45:32.972Z,23.60
2018-05-09T15:48:00.611Z,23.20
2018-05-09T15:50:31.272Z,22.50
2018-05-09T15:52:59.452Z,22.00
2018-05-09T15:55:27.490Z,21.50
2018-05-09T15:57:58.051Z,21.00
2018-05-09T16:00:25.982Z,20.60
2018-05-09T16:02:53.686Z,20.50
2018-05-09T16:05:21.512Z,19.90
2018-05-09T16:07:49.252Z,20.00
2018-05-09T16:10:17.062Z,20.10
2018-05-09T16:12:44.631Z,20.10
2018-05-09T16:15:13.103Z,20.10
2018-05-09T16:17:40.713Z,19.80
2018-05-09T16:20:08.472Z,19.80
2018-05-09T16:22:35.998Z,19.60
2018-05-09T16:25:04.114Z,19.60
2018-05-09T16:27:31.631Z,19.60
2018-05-09T16:29:59.192Z,19.60
2018-05-09T16:32:26.893Z,19.50
2018-05-09T16:34:54.940Z,19.30
2018-05-09T16:37:22.681Z,19.10
2018-05-09T16:39:50.492Z,18.90
2018-05-09T16:42:18.896Z,18.80
2018-05-09T16:44:46.852Z,18.90
2018-05-09T16:47:14.443Z,18.90
2018-05-09T16:49:42.802Z,18.50
2018-05-09T16:52:10.594Z,18.10
2018-05-09T16:54:39.092Z,17.90
2018-05-09T16:57:06.891Z,18.00
2018-05-09T16:59:34.640Z,18.20
2018-05-09T17:02:02.393Z,18.20
2018-05-09T17:04:30.563Z,18.30
2018-05-09T17:06:58.453Z,18.30
2018-05-09T17:09:26.606Z,18.40
2018-05-09T17:12:17.171Z,18.30
2018-05-09T17:17:29.332Z,18.40
2018-05-09T17:19:57.831Z,18.50
2018-05-09T17:22:52.872Z,18.50
2018-05-09T17:25:22.832Z,18.70
2018-05-09T17:27:52.752Z,18.80
2018-05-09T17:30:21.009Z,18.90
2018-05-09T17:32:48.491Z,18.90
2018-05-09T17:35:17.358Z,19.00
2018-05-09T17:37:46.794Z,19.00
2018-05-09T17:40:16.981Z,18.90
2018-05-09T17:42:46.211Z,18.90
2018-05-09T17:45:14.611Z,18.80
2018-05-09T17:47:42.312Z,18.80
2018-05-09T17:50:12.562Z,18.70
2018-05-09T17:52:40.003Z,18.50
2018-05-09T17:55:10.743Z,18.20
2018-05-09T17:57:38.233Z,18.10
2018-05-09T18:00:06.031Z,18.10
2018-05-09T18:02:34.283Z,18.00
2018-05-09T18:05:02.481Z,18.00
2018-05-09T18:07:29.911Z,17.90
2018-05-09T18:09:57.782Z,17.90
2018-05-09T18:12:25.514Z,17.80
2018-05-09T18:14:57.394Z,17.70
2018-05-09T18:17:25.712Z,17.60
2018-05-09T18:19:53.193Z,17.50
2018-05-09T18:22:20.813Z,17.40
2018-05-09T18:24:54.285Z,17.30
2018-05-09T18:27:21.642Z,17.30
2018-05-09T18:29:49.433Z,17.20
2018-05-09T18:32:17.661Z,17.20
2018-05-09T18:34:45.573Z,17.10
2018-05-09T18:37:13.163Z,16.90
2018-05-09T18:39:43.937Z,16.90
2018-05-09T18:42:11.206Z,16.80
2018-05-09T18:44:38.892Z,16.70
2018-05-09T18:47:06.813Z,16.50
2018-05-09T18:49:35.026Z,16.40
2018-05-09T18:52:03.242Z,16.20
2018-05-09T18:54:31.483Z,16.10
2018-05-09T18:56:58.923Z,15.90
2018-05-09T18:59:27.344Z,15.90
2018-05-09T19:01:54.873Z,15.80
2018-05-09T19:04:22.592Z,15.60
2018-05-09T19:06:51.693Z,15.50
2018-05-09T19:09:23.194Z,15.50
2018-05-09T19:11:53.263Z,15.40
2018-05-09T19:14:20.903Z,15.30
2018-05-09T19:16:49.853Z,15.40
2018-05-09T19:19:19.403Z,15.30
2018-05-09T19:21:48.342Z,15.20
2018-05-09T19:24:17.742Z,15.30
2018-05-09T19:26:46.896Z,15.20
2018-05-09T19:29:16.224Z,15.20
2018-05-09T19:31:43.692Z,15.10
2018-05-09T19:34:12.267Z,15.10
2018-05-09T19:36:41.420Z,15.20
2018-05-09T19:39:12.152Z,15.10
2018-05-09T19:41:42.318Z,15.00
2018-05-09T19:44:11.544Z,15.00
2018-05-09T19:46:42.742Z,15.00
2018-05-09T19:49:15.644Z,15.00
2018-05-09T19:51:44.861Z,14.90
2018-05-09T19:54:12.932Z,15.00
2018-05-09T19:56:40.512Z,15.00
2018-05-09T19:59:10.002Z,14.90
2018-05-09T20:01:38.221Z,14.90
2018-05-09T20:04:09.325Z,14.80
2018-05-09T20:06:39.371Z,14.80
2018-05-09T20:09:08.832Z,14.80
2018-05-09T20:11:37.872Z,14.70
2018-05-09T20:14:10.873Z,14.70
2018-05-09T20:16:40.532Z,14.70
2018-05-09T20:19:08.442Z,14.70
2018-05-09T20:21:42.892Z,14.70
2018-05-09T20:24:10.611Z,14.80
2018-05-09T20:26:44.722Z,14.80
2018-05-09T20:29:12.831Z,14.70
2018-05-09T20:32:02.962Z,14.60
2018-05-09T20:34:43.582Z,14.60
2018-05-09T20:37:13.182Z,14.60
2018-05-09T20:39:43.283Z,14.50
2018-05-09T20:42:13.292Z,14.40
2018-05-09T20:44:40.702Z,14.40
2018-05-09T20:47:08.982Z,14.40
2018-05-09T20:49:36.623Z,14.40
2018-05-09T20:52:05.782Z,14.40
2018-05-09T20:54:33.362Z,14.30
2018-05-09T20:57:01.282Z,14.30
2018-05-09T20:59:28.802Z,14.30
2018-05-09T21:01:56.571Z,14.20
2018-05-09T21:04:24.952Z,14.20
2018-05-09T21:06:52.598Z,14.20
2018-05-09T21:09:22.662Z,14.20
2018-05-09T21:12:08.157Z,14.20
2018-05-09T21:14:38.157Z,14.20
2018-05-09T21:17:06.161Z,14.10
2018-05-09T21:19:33.804Z,14.10
2018-05-09T21:22:01.766Z,14.00
2018-05-09T21:24:30.034Z,14.00
2018-05-09T21:26:57.672Z,14.00
2018-05-09T21:29:25.391Z,14.10
2018-05-09T21:31:53.033Z,14.10
2018-05-09T21:34:20.473Z,14.10
2018-05-09T21:36:50.392Z,14.10
2018-05-09T21:39:19.412Z,14.10
2018-05-09T21:41:46.872Z,14.10
2018-05-09T21:44:14.412Z,14.10
2018-05-09T21:46:43.721Z,14.00
2018-05-09T21:49:11.902Z,14.00
2018-05-09T21:51:43.432Z,13.90
2018-05-09T21:54:10.892Z,13.90
2018-05-09T21:56:41.156Z,13.90
2018-05-09T21:59:08.631Z,13.90
2018-05-09T22:01:37.103Z,13.80
2018-05-09T22:04:04.812Z,13.80
2018-05-09T22:06:32.493Z,13.70
2018-05-09T22:09:00.411Z,13.70
2018-05-09T22:11:27.995Z,13.70
2018-05-09T22:13:55.895Z,13.70
2018-05-09T22:16:24.683Z,13.70
2018-05-09T22:18:54.704Z,13.80
2018-05-09T22:21:24.151Z,13.80
2018-05-09T22:23:51.881Z,13.80
2018-05-09T22:26:19.981Z,13.80
2018-05-09T22:28:49.051Z,13.70
2018-05-09T22:31:16.401Z,13.70
2018-05-09T22:33:44.782Z,13.60
2018-05-09T22:36:12.403Z,13.60
2018-05-09T22:38:43.821Z,13.60
2018-05-09T22:41:11.281Z,13.60
2018-05-09T22:43:39.232Z,13.60
2018-05-09T22:46:06.801Z,13.60
2018-05-09T22:48:35.002Z,13.50
2018-05-09T22:51:02.431Z,13.50
2018-05-09T22:53:30.001Z,13.50
2018-05-09T22:55:57.711Z,13.50
2018-05-09T22:58:27.951Z,13.50
2018-05-09T23:00:55.562Z,13.60
2018-05-09T23:03:23.261Z,13.50
2018-05-09T23:05:50.779Z,13.50
2018-05-09T23:08:18.511Z,13.50
2018-05-09T23:10:46.071Z,13.50
2018-05-09T23:13:14.201Z,13.50
2018-05-09T23:15:42.512Z,13.50
2018-05-09T23:18:09.971Z,13.40
2018-05-09T23:20:41.251Z,13.40
2018-05-09T23:23:09.151Z,13.40
2018-05-09T23:25:39.350Z,13.40
2018-05-09T23:28:06.730Z,13.30
2018-05-09T23:30:34.270Z,13.30
2018-05-09T23:33:01.670Z,13.30
2018-05-09T23:35:30.802Z,13.30
2018-05-09T23:37:58.371Z,13.20
2018-05-09T23:40:26.631Z,13.30
2018-05-09T23:42:54.291Z,13.30
2018-05-09T23:45:22.150Z,13.20
2018-05-09T23:47:52.781Z,13.20
2018-05-09T23:50:20.331Z,13.20
2018-05-09T23:52:47.861Z,13.20
2018-05-09T23:55:18.541Z,13.20
2018-05-09T23:57:47.892Z,13.20
